Flight Track Log - Related Links

Times and Time Zones

All times are in EDT time to prevent confusion due to time zone crossing. See the EJA831 flight status page for this flight to view local times or setup timezone preferences in your user account.

Time Position Orientation Groundspeed Altitude Reporting Facility
EDT Latitude Longitude Course Direction KTS MPH feet Rate Location/Type
Mon 03:28:19 AM 33.4333 -112.0333 248° West 175 201 1,900  Level Phoenix TRACON
Mon 03:29:07 AM 33.4167 -112.0833 248° West 215 247 4,000 2,722 Climbing Phoenix TRACON
Mon 03:30:07 AM 33.4167 -112.1667 270° West 255 293 6,800 2,617 Climbing Phoenix TRACON
Mon 03:30:41 AM 33.4136 -112.2094 265° West 262 302 8,100 2,653 Climbing Albuquerque Center
Mon 03:31:42 AM 33.4194 -112.2997 274° West 267 307 11,000 2,975 Climbing Albuquerque Center
Mon 03:32:42 AM 33.4256 -112.3911 275° West 271 312 14,100 2,975 Climbing Albuquerque Center
Mon 03:33:43 AM 33.4322 -112.4856 275° West 284 327 17,000 2,975 Climbing Albuquerque Center
Mon 03:34:43 AM 33.4383 -112.5747 275° West 271 312 20,100 2,800 Climbing Albuquerque Center
Mon 03:35:43 AM 33.4444 -112.6714 274° West 267 307 22,600 2,529 Climbing Albuquerque Center
Mon 03:36:44 AM 33.4511 -112.7592 275° West 267 307 25,200 2,143 Climbing Albuquerque Center
Mon 03:38:45 AM 33.4753 -112.9369 279° West 273 314 29,100 1,856 Climbing Albuquerque Center
Mon 03:39:45 AM 33.4867 -113.0328 278° West 286 329 30,800 1,450 Climbing Albuquerque Center
Mon 03:40:45 AM 33.4992 -113.1308 279° West 293 337 32,000 595 Climbing Albuquerque Center
Mon 03:41:46 AM 33.5139 -113.2392 279° West 320 368 32,000  Level Albuquerque Center
Mon 03:42:46 AM 33.5267 -113.3517 278° West 336 387 32,000  Level Albuquerque Center
Mon 03:43:46 AM 33.5406 -113.4647 278° West 339 390 32,000  Level Albuquerque Center
Mon 03:44:47 AM 33.5542 -113.5767 278° West 341 392 32,000  Level Albuquerque Center
Mon 03:45:47 AM 33.5689 -113.6889 279° West 341 392 32,000  Level Albuquerque Center
Mon 03:46:48 AM 33.5831 -113.8011 279° West 341 392 32,000  Level Albuquerque Center
Mon 03:47:48 AM 33.5958 -113.9142 278° West 342 394 32,000  Level Albuquerque Center
Mon 03:48:48 AM 33.6108 -114.0414 278° West 342 394 32,000  Level Albuquerque Center
Mon 03:49:49 AM 33.6247 -114.1542 278° West 342 394 32,000  Level Albuquerque Center
Mon 03:50:49 AM 33.6369 -114.2528 278° West 342 394 32,000  Level Albuquerque Center
Mon 03:51:50 AM 33.6475 -114.3661 276° West 342 394 32,000  Level Albuquerque Center
Mon 03:52:50 AM 33.6619 -114.4778 279° West 342 394 32,000  Level Albuquerque Center
Mon 03:53:52 AM 33.6772 -114.6125 278° West 341 392 32,000  Level Los Angeles Center
Mon 03:54:52 AM 33.6903 -114.7258 278° West 341 392 32,000  Level Los Angeles Center
Mon 03:55:52 AM 33.7039 -114.8378 278° West 341 392 32,000  Level Los Angeles Center
Mon 03:56:53 AM 33.7164 -114.9508 278° West 342 394 32,000  Level Los Angeles Center
Mon 03:57:53 AM 33.7275 -115.0647 277° West 342 394 32,000  Level Los Angeles Center
Mon 03:58:53 AM 33.7392 -115.1769 277° West 342 394 32,000  Level Los Angeles Center
Mon 03:59:54 AM 33.7528 -115.2911 278° West 342 394 32,000  Level Los Angeles Center
Mon 04:00:54 AM 33.7644 -115.4042 277° West 342 394 32,000  Level Los Angeles Center
Mon 04:01:54 AM 33.7767 -115.5183 277° West 343 395 32,000  Level Los Angeles Center
Mon 04:02:55 AM 33.7886 -115.6333 277° West 343 395 32,000 -248 Level Los Angeles Center
Mon 04:03:55 AM 33.8000 -115.7486 277° West 345 397 31,500 -1,200 Descending Los Angeles Center
Mon 04:04:55 AM 33.8131 -115.8678 278° West 356 410 29,600 -1,950 Descending Los Angeles Center
Mon 04:05:55 AM 33.8264 -115.9931 277° West 370 426 27,600 -1,934 Descending Los Angeles Center
Mon 04:06:56 AM 33.8386 -116.1119 277° West 369 425 25,700 -1,835 Descending Los Angeles Center
Mon 04:07:56 AM 33.8500 -116.2275 277° West 356 410 23,900 -1,800 Descending Los Angeles Center
Mon 04:08:56 AM 33.8611 -116.3375 277° West 338 389 22,100 -1,750 Descending Los Angeles Center
Mon 04:09:56 AM 33.8717 -116.4419 277° West 324 373 20,400 -1,636 Descending Los Angeles Center
Mon 04:10:57 AM 33.8750 -116.5453 272° West 314 361 18,800 -1,587 Descending Los Angeles Center
Mon 04:11:57 AM 33.8811 -116.6453 274° West 304 350 17,200 -1,550 Descending Los Angeles Center
Mon 04:12:57 AM 33.8847 -116.7447 273° West 302 348 15,700 -1,500 Descending Los Angeles Center
Mon 04:13:57 AM 33.8894 -116.8383 274° West 288 331 14,200 -1,140 Descending Los Angeles Center
Mon 04:14:58 AM 33.9061 -116.9267 283° West 273 314 13,400 -645 Descending Los Angeles Center
Mon 04:15:58 AM 33.9214 -117.0072 283° West 254 292 12,900 -500 Descending Los Angeles Center
Mon 04:16:58 AM 33.9383 -117.0872 284° West 249 287 12,400 -650 Descending Los Angeles Center
Mon 04:17:58 AM 33.9575 -117.1769 284° West 259 298 11,600 -793 Descending Los Angeles Center
Mon 04:18:59 AM 33.9736 -117.2619 283° West 260 299 10,800 -744 Descending Los Angeles Center
Mon 04:19:59 AM 33.9906 -117.3481 283° West 261 300 10,100 -750 Descending Los Angeles Center
Mon 04:20:59 AM 34.0078 -117.4344 284° West 264 304 9,300 -800 Descending Los Angeles Center
Mon 04:21:59 AM 34.0258 -117.5194 284° West 263 303 8,500 -793 Descending Los Angeles Center
Mon 04:23:00 AM 34.0433 -117.6008 285° West 256 295 7,700 -744 Descending Los Angeles Center
Mon 04:24:00 AM 34.0586 -117.6803 283° West 249 287 7,000 -750 Descending Los Angeles Center
Mon 04:25:00 AM 34.0753 -117.7658 283° West 256 295 6,200 -667 Descending Los Angeles Center
Mon 04:25:30 AM 34.0833 -117.8167 281° West 261 300 6,000 -143 Descending Southern California TRACON
Mon 04:26:24 AM 34.1000 -117.9000 284° West 259 298 6,000  Level Southern California TRACON
Mon 04:27:24 AM 34.1167 -117.9833 284° West 248 285 6,000  Level Southern California TRACON
Mon 04:28:24 AM 34.1167 -118.0667 270° West 237 273 6,000  Level Southern California TRACON
Mon 04:29:01 AM 34.1289 -118.0936 299° West 246 283 6,000  Level Los Angeles Center
Mon 04:30:01 AM 34.1431 -118.1828 281° West 236 272 6,000 -550 Level Los Angeles Center
Mon 04:31:01 AM 34.1419 -118.2517 269° West 212 244 4,900 -992 Descending Los Angeles Center
Mon 04:32:02 AM 34.1269 -118.3064 252° West 177 204 4,000 -1,091 Descending Los Angeles Center
Mon 04:33:02 AM 34.1008 -118.3414 228° Southwest 147 169 2,700 -1,000 Descending Los Angeles Center
Mon 04:34:02 AM 34.0733 -118.3769 227° Southwest 147 169 2,000 -800 Descending Los Angeles Center
Mon 04:35:02 AM 34.0503 -118.4114 231° Southwest 142 163 1,100 -800 Descending Los Angeles Center
Mon 04:36:02 AM 34.0267 -118.4403 225° Southwest 131 151 400 -397 Descending Los Angeles Center
Mon 04:37:03 AM 34.0075 -118.4667 229° Southwest 126 145 300 -98 Descending Los Angeles Center
Mon 04:39:00 AM 34.0000 -118.4500 90° East  Level FlightAware Approximate

Login

Don't have an account? Register now (free) for customized features, flight alerts, and more!